Карточка аэропорта UUYY

Внимание!
Информация на этой странице в стадии наполнения.
Если вы не увидели какой-то информации, или заметили неточность - пожалуйста сообщите нам!
Спасибо!
Команда RU-STAFF
Название аэропортаСыктывкар
Название аэропорта (англ.)Syktyvkar
Превышение339 ft. (103.3 m.)
Координаты61°38.502', 50°50.298'
Высота перехода3000 feet
Эшелон переходаQNH>=1013hPa:FL040; QNH<1013hPa:FL050; QNH<977hPa:FL060
Коды ответчика3130-3134, 5752-5757, 5770-5777, 6701-6717
Зона ОрВДСанкт-Петербург РПИ (ULLL)
Данные METARUUYY 031700Z 00000MPS 4200 -SN BR SCT046 M07/M08 Q1016 R18/590239 NOSIG RMK QFE754/1005
Проноз погоды (TAF)UUYY 031400Z 0315/0415 14003G08MPS 6000 -SHSN BKN011 BKN017CB TEMPO 0315/0318 2100 -SHSN -FZDZ BR FEW007 BKN016CB TEMPO 0318/0403 1000 SHSN FZDZ BR BKN006 BKN016CB TEMPO 0403/0415 -FZDZ BKN007 BKN016CB BECMG 0404/0405 24003G08MPS
NOTAMshow/hide NOTAM
AWOS   TABLE

Информация о ВПП

ВПП Длина ВПП (м.) Покрытие Курс ВПП Частота ILS
192500Асфальтобетон186111.7
012500Асфальтобетон6108.3

Диспетчерские позиции

Позывной Наименование органа УВД Частота
UUYY_R_APPСивкар-Круг124.600
UUYY_TWRСивкар-Старт124.600



Спутниковое изображение